sensor_id;sensor_type;location;lat;lon;timestamp;P1;durP1;ratioP1;P2;durP2;ratioP2
4563;SDS011;2294;51.818;8.484;2022-12-18T00:00:39;24.38;;;9.80;;
4563;SDS011;2294;51.818;8.484;2022-12-18T00:03:06;29.27;;;11.93;;
4563;SDS011;2294;51.818;8.484;2022-12-18T00:05:35;24.80;;;10.77;;
4563;SDS011;2294;51.818;8.484;2022-12-18T00:08:02;31.38;;;14.80;;
4563;SDS011;2294;51.818;8.484;2022-12-18T00:10:29;29.33;;;12.65;;
4563;SDS011;2294;51.818;8.484;2022-12-18T00:12:56;22.50;;;11.73;;
4563;SDS011;2294;51.818;8.484;2022-12-18T00:15:23;26.17;;;11.70;;
4563;SDS011;2294;51.818;8.484;2022-12-18T00:17:50;26.10;;;12.45;;
4563;SDS011;2294;51.818;8.484;2022-12-18T00:20:17;29.17;;;12.95;;
4563;SDS011;2294;51.818;8.484;2022-12-18T00:22:51;27.02;;;12.98;;
4563;SDS011;2294;51.818;8.484;2022-12-18T00:25:18;34.95;;;11.98;;
4563;SDS011;2294;51.818;8.484;2022-12-18T00:27:45;24.98;;;12.18;;
4563;SDS011;2294;51.818;8.484;2022-12-18T00:30:12;24.55;;;11.45;;
4563;SDS011;2294;51.818;8.484;2022-12-18T00:32:39;24.35;;;11.35;;
4563;SDS011;2294;51.818;8.484;2022-12-18T00:35:06;18.77;;;9.00;;
4563;SDS011;2294;51.818;8.484;2022-12-18T00:37:34;20.58;;;11.38;;
4563;SDS011;2294;51.818;8.484;2022-12-18T00:40:02;17.42;;;8.55;;
4563;SDS011;2294;51.818;8.484;2022-12-18T00:42:30;24.45;;;10.52;;
4563;SDS011;2294;51.818;8.484;2022-12-18T00:45:14;21.25;;;9.98;;
4563;SDS011;2294;51.818;8.484;2022-12-18T00:47:41;23.15;;;8.45;;
4563;SDS011;2294;51.818;8.484;2022-12-18T00:50:08;16.45;;;8.68;;
4563;SDS011;2294;51.818;8.484;2022-12-18T00:52:35;24.60;;;10.45;;
4563;SDS011;2294;51.818;8.484;2022-12-18T00:55:04;21.05;;;10.70;;
4563;SDS011;2294;51.818;8.484;2022-12-18T00:57:31;19.13;;;9.63;;
4563;SDS011;2294;51.818;8.484;2022-12-18T00:59:58;14.68;;;8.63;;
4563;SDS011;2294;51.818;8.484;2022-12-18T01:02:25;20.02;;;9.60;;
4563;SDS011;2294;51.818;8.484;2022-12-18T01:04:52;19.10;;;10.70;;
4563;SDS011;2294;51.818;8.484;2022-12-18T01:07:19;19.27;;;10.10;;
4563;SDS011;2294;51.818;8.484;2022-12-18T01:09:46;26.23;;;11.05;;
4563;SDS011;2294;51.818;8.484;2022-12-18T01:12:14;19.85;;;9.95;;
4563;SDS011;2294;51.818;8.484;2022-12-18T01:14:41;16.67;;;9.05;;
4563;SDS011;2294;51.818;8.484;2022-12-18T01:17:08;22.63;;;8.80;;
4563;SDS011;2294;51.818;8.484;2022-12-18T01:19:35;17.67;;;7.70;;
4563;SDS011;2294;51.818;8.484;2022-12-18T01:22:01;16.90;;;8.60;;
4563;SDS011;2294;51.818;8.484;2022-12-18T01:24:28;24.25;;;7.63;;
4563;SDS011;2294;51.818;8.484;2022-12-18T01:26:55;10.90;;;6.28;;
4563;SDS011;2294;51.818;8.484;2022-12-18T01:29:24;18.33;;;6.68;;
4563;SDS011;2294;51.818;8.484;2022-12-18T01:31:54;13.32;;;7.65;;
4563;SDS011;2294;51.818;8.484;2022-12-18T01:34:22;7.50;;;5.25;;
4563;SDS011;2294;51.818;8.484;2022-12-18T01:36:49;9.57;;;5.15;;
4563;SDS011;2294;51.818;8.484;2022-12-18T01:39:17;8.50;;;5.35;;
4563;SDS011;2294;51.818;8.484;2022-12-18T01:41:44;17.90;;;7.18;;
4563;SDS011;2294;51.818;8.484;2022-12-18T01:44:52;9.82;;;5.75;;
4563;SDS011;2294;51.818;8.484;2022-12-18T01:47:26;9.63;;;4.80;;
4563;SDS011;2294;51.818;8.484;2022-12-18T01:49:57;7.25;;;5.30;;
4563;SDS011;2294;51.818;8.484;2022-12-18T01:52:26;8.30;;;4.57;;
4563;SDS011;2294;51.818;8.484;2022-12-18T01:54:56;10.48;;;5.07;;
4563;SDS011;2294;51.818;8.484;2022-12-18T01:57:23;13.20;;;5.10;;
4563;SDS011;2294;51.818;8.484;2022-12-18T01:59:52;7.47;;;4.60;;
4563;SDS011;2294;51.818;8.484;2022-12-18T02:02:22;8.82;;;6.20;;
4563;SDS011;2294;51.818;8.484;2022-12-18T02:04:49;13.60;;;5.68;;
4563;SDS011;2294;51.818;8.484;2022-12-18T02:07:17;8.25;;;5.20;;
4563;SDS011;2294;51.818;8.484;2022-12-18T02:09:50;10.43;;;5.75;;
4563;SDS011;2294;51.818;8.484;2022-12-18T02:12:24;15.27;;;4.65;;
4563;SDS011;2294;51.818;8.484;2022-12-18T02:14:58;9.00;;;5.10;;
4563;SDS011;2294;51.818;8.484;2022-12-18T02:17:33;6.50;;;4.40;;
4563;SDS011;2294;51.818;8.484;2022-12-18T02:20:08;9.18;;;5.47;;
4563;SDS011;2294;51.818;8.484;2022-12-18T02:22:43;12.48;;;5.50;;
4563;SDS011;2294;51.818;8.484;2022-12-18T02:25:21;7.88;;;5.05;;
4563;SDS011;2294;51.818;8.484;2022-12-18T02:28:03;10.38;;;4.95;;
4563;SDS011;2294;51.818;8.484;2022-12-18T02:30:33;8.05;;;4.72;;
4563;SDS011;2294;51.818;8.484;2022-12-18T02:33:01;12.65;;;5.70;;
4563;SDS011;2294;51.818;8.484;2022-12-18T02:35:31;12.95;;;4.95;;
4563;SDS011;2294;51.818;8.484;2022-12-18T02:38:00;7.30;;;4.60;;
4563;SDS011;2294;51.818;8.484;2022-12-18T02:40:29;8.32;;;4.43;;
4563;SDS011;2294;51.818;8.484;2022-12-18T02:43:03;6.78;;;4.10;;
4563;SDS011;2294;51.818;8.484;2022-12-18T02:45:34;11.53;;;6.57;;
4563;SDS011;2294;51.818;8.484;2022-12-18T02:48:01;13.93;;;5.63;;
4563;SDS011;2294;51.818;8.484;2022-12-18T02:50:30;10.50;;;4.75;;
4563;SDS011;2294;51.818;8.484;2022-12-18T02:53:03;11.15;;;5.28;;
4563;SDS011;2294;51.818;8.484;2022-12-18T02:55:39;13.85;;;4.80;;
4563;SDS011;2294;51.818;8.484;2022-12-18T02:58:15;16.30;;;5.90;;
4563;SDS011;2294;51.818;8.484;2022-12-18T03:00:47;6.93;;;4.00;;
4563;SDS011;2294;51.818;8.484;2022-12-18T03:03:18;12.60;;;5.95;;
4563;SDS011;2294;51.818;8.484;2022-12-18T03:05:51;8.90;;;4.90;;
4563;SDS011;2294;51.818;8.484;2022-12-18T03:08:21;5.78;;;4.18;;
4563;SDS011;2294;51.818;8.484;2022-12-18T03:10:51;9.88;;;5.32;;
4563;SDS011;2294;51.818;8.484;2022-12-18T03:13:26;12.98;;;5.38;;
4563;SDS011;2294;51.818;8.484;2022-12-18T03:15:56;5.18;;;4.55;;
4563;SDS011;2294;51.818;8.484;2022-12-18T03:18:27;7.82;;;5.13;;
4563;SDS011;2294;51.818;8.484;2022-12-18T03:20:59;11.23;;;4.60;;
4563;SDS011;2294;51.818;8.484;2022-12-18T03:23:31;8.70;;;4.03;;
4563;SDS011;2294;51.818;8.484;2022-12-18T03:26:04;8.45;;;4.35;;
4563;SDS011;2294;51.818;8.484;2022-12-18T03:28:36;5.93;;;3.40;;
4563;SDS011;2294;51.818;8.484;2022-12-18T03:31:07;6.13;;;3.67;;
4563;SDS011;2294;51.818;8.484;2022-12-18T03:33:37;7.70;;;4.13;;
4563;SDS011;2294;51.818;8.484;2022-12-18T03:36:07;5.53;;;3.88;;
4563;SDS011;2294;51.818;8.484;2022-12-18T03:38:34;12.45;;;3.70;;
4563;SDS011;2294;51.818;8.484;2022-12-18T03:41:03;8.10;;;3.30;;
4563;SDS011;2294;51.818;8.484;2022-12-18T03:43:40;10.75;;;4.03;;
4563;SDS011;2294;51.818;8.484;2022-12-18T03:46:16;6.05;;;3.58;;
4563;SDS011;2294;51.818;8.484;2022-12-18T03:48:52;4.10;;;3.70;;
4563;SDS011;2294;51.818;8.484;2022-12-18T03:51:25;9.93;;;4.00;;
4563;SDS011;2294;51.818;8.484;2022-12-18T03:53:59;4.75;;;3.42;;
4563;SDS011;2294;51.818;8.484;2022-12-18T03:56:28;7.65;;;3.65;;
4563;SDS011;2294;51.818;8.484;2022-12-18T03:58:59;9.43;;;4.72;;
4563;SDS011;2294;51.818;8.484;2022-12-18T04:01:29;6.50;;;4.25;;
4563;SDS011;2294;51.818;8.484;2022-12-18T04:04:00;4.40;;;4.00;;
4563;SDS011;2294;51.818;8.484;2022-12-18T04:06:28;9.23;;;4.63;;
4563;SDS011;2294;51.818;8.484;2022-12-18T04:08:56;8.75;;;3.72;;
4563;SDS011;2294;51.818;8.484;2022-12-18T04:11:24;11.30;;;3.30;;
4563;SDS011;2294;51.818;8.484;2022-12-18T04:13:53;4.65;;;3.28;;
4563;SDS011;2294;51.818;8.484;2022-12-18T04:16:23;8.82;;;4.03;;
4563;SDS011;2294;51.818;8.484;2022-12-18T04:18:50;6.53;;;3.53;;
4563;SDS011;2294;51.818;8.484;2022-12-18T04:21:17;7.70;;;3.73;;
4563;SDS011;2294;51.818;8.484;2022-12-18T04:23:44;6.05;;;3.80;;
4563;SDS011;2294;51.818;8.484;2022-12-18T04:26:11;6.83;;;3.20;;
4563;SDS011;2294;51.818;8.484;2022-12-18T04:28:37;12.52;;;3.67;;
4563;SDS011;2294;51.818;8.484;2022-12-18T04:31:04;7.50;;;3.65;;
4563;SDS011;2294;51.818;8.484;2022-12-18T04:33:33;7.10;;;3.47;;
4563;SDS011;2294;51.818;8.484;2022-12-18T04:36:00;4.35;;;3.35;;
4563;SDS011;2294;51.818;8.484;2022-12-18T04:38:26;6.57;;;3.65;;
4563;SDS011;2294;51.818;8.484;2022-12-18T04:40:53;7.28;;;3.60;;
4563;SDS011;2294;51.818;8.484;2022-12-18T04:43:20;4.38;;;3.42;;
4563;SDS011;2294;51.818;8.484;2022-12-18T04:45:47;6.22;;;2.75;;
4563;SDS011;2294;51.818;8.484;2022-12-18T04:48:14;7.27;;;3.60;;
4563;SDS011;2294;51.818;8.484;2022-12-18T04:50:42;10.37;;;3.97;;
4563;SDS011;2294;51.818;8.484;2022-12-18T04:53:09;5.30;;;3.10;;
4563;SDS011;2294;51.818;8.484;2022-12-18T04:55:36;12.03;;;3.00;;
4563;SDS011;2294;51.818;8.484;2022-12-18T04:58:02;5.03;;;3.30;;
4563;SDS011;2294;51.818;8.484;2022-12-18T05:00:29;7.75;;;3.13;;
4563;SDS011;2294;51.818;8.484;2022-12-18T05:02:56;4.80;;;3.10;;
4563;SDS011;2294;51.818;8.484;2022-12-18T05:05:23;5.45;;;3.33;;
4563;SDS011;2294;51.818;8.484;2022-12-18T05:07:51;4.43;;;3.88;;
4563;SDS011;2294;51.818;8.484;2022-12-18T05:10:18;4.20;;;2.88;;
4563;SDS011;2294;51.818;8.484;2022-12-18T05:12:45;4.43;;;3.03;;
4563;SDS011;2294;51.818;8.484;2022-12-18T05:15:26;4.05;;;2.65;;
4563;SDS011;2294;51.818;8.484;2022-12-18T05:17:53;5.35;;;3.03;;
4563;SDS011;2294;51.818;8.484;2022-12-18T05:20:22;3.35;;;2.90;;
4563;SDS011;2294;51.818;8.484;2022-12-18T05:22:48;5.65;;;2.95;;
4563;SDS011;2294;51.818;8.484;2022-12-18T05:25:17;6.85;;;3.88;;
4563;SDS011;2294;51.818;8.484;2022-12-18T05:27:44;6.32;;;3.47;;
4563;SDS011;2294;51.818;8.484;2022-12-18T05:30:12;3.97;;;3.03;;
4563;SDS011;2294;51.818;8.484;2022-12-18T05:32:39;8.38;;;3.40;;
4563;SDS011;2294;51.818;8.484;2022-12-18T05:35:07;8.10;;;4.22;;
4563;SDS011;2294;51.818;8.484;2022-12-18T05:37:35;6.95;;;3.92;;
4563;SDS011;2294;51.818;8.484;2022-12-18T05:40:02;6.03;;;2.95;;
4563;SDS011;2294;51.818;8.484;2022-12-18T05:42:31;5.55;;;3.25;;
4563;SDS011;2294;51.818;8.484;2022-12-18T05:44:58;8.95;;;4.25;;
4563;SDS011;2294;51.818;8.484;2022-12-18T05:47:25;4.50;;;2.58;;
4563;SDS011;2294;51.818;8.484;2022-12-18T05:49:52;7.55;;;2.63;;
4563;SDS011;2294;51.818;8.484;2022-12-18T05:52:19;7.90;;;4.30;;
4563;SDS011;2294;51.818;8.484;2022-12-18T05:54:46;6.70;;;3.87;;
4563;SDS011;2294;51.818;8.484;2022-12-18T05:57:13;11.48;;;3.60;;
4563;SDS011;2294;51.818;8.484;2022-12-18T05:59:41;7.03;;;3.23;;
4563;SDS011;2294;51.818;8.484;2022-12-18T06:02:08;7.32;;;3.40;;
4563;SDS011;2294;51.818;8.484;2022-12-18T06:04:35;7.68;;;4.10;;
4563;SDS011;2294;51.818;8.484;2022-12-18T06:07:02;8.05;;;3.95;;
4563;SDS011;2294;51.818;8.484;2022-12-18T06:09:29;7.07;;;4.00;;
4563;SDS011;2294;51.818;8.484;2022-12-18T06:11:57;4.30;;;2.80;;
4563;SDS011;2294;51.818;8.484;2022-12-18T06:14:23;9.88;;;3.67;;
4563;SDS011;2294;51.818;8.484;2022-12-18T06:16:52;8.90;;;3.63;;
4563;SDS011;2294;51.818;8.484;2022-12-18T06:19:19;4.85;;;3.40;;
4563;SDS011;2294;51.818;8.484;2022-12-18T06:21:46;9.38;;;4.40;;
4563;SDS011;2294;51.818;8.484;2022-12-18T06:24:14;8.05;;;4.57;;
4563;SDS011;2294;51.818;8.484;2022-12-18T06:26:41;17.93;;;4.80;;
4563;SDS011;2294;51.818;8.484;2022-12-18T06:29:08;9.55;;;5.22;;
4563;SDS011;2294;51.818;8.484;2022-12-18T06:31:34;5.40;;;3.65;;
4563;SDS011;2294;51.818;8.484;2022-12-18T06:34:03;6.53;;;4.10;;
4563;SDS011;2294;51.818;8.484;2022-12-18T06:36:31;7.93;;;4.25;;
4563;SDS011;2294;51.818;8.484;2022-12-18T06:38:58;15.82;;;5.20;;
4563;SDS011;2294;51.818;8.484;2022-12-18T06:41:25;4.25;;;3.30;;
4563;SDS011;2294;51.818;8.484;2022-12-18T06:43:52;10.57;;;4.05;;
4563;SDS011;2294;51.818;8.484;2022-12-18T06:46:19;4.30;;;2.83;;
4563;SDS011;2294;51.818;8.484;2022-12-18T06:48:46;7.40;;;3.85;;
4563;SDS011;2294;51.818;8.484;2022-12-18T06:51:17;6.95;;;4.30;;
4563;SDS011;2294;51.818;8.484;2022-12-18T06:53:44;13.35;;;4.85;;
4563;SDS011;2294;51.818;8.484;2022-12-18T06:56:11;5.03;;;4.00;;
4563;SDS011;2294;51.818;8.484;2022-12-18T06:58:38;5.93;;;3.30;;
4563;SDS011;2294;51.818;8.484;2022-12-18T07:01:06;7.30;;;4.03;;
4563;SDS011;2294;51.818;8.484;2022-12-18T07:03:35;9.93;;;3.90;;
4563;SDS011;2294;51.818;8.484;2022-12-18T07:06:02;7.32;;;3.75;;
4563;SDS011;2294;51.818;8.484;2022-12-18T07:08:30;13.27;;;5.00;;
4563;SDS011;2294;51.818;8.484;2022-12-18T07:10:57;4.65;;;3.30;;
4563;SDS011;2294;51.818;8.484;2022-12-18T07:13:24;7.55;;;4.00;;
4563;SDS011;2294;51.818;8.484;2022-12-18T07:15:51;6.28;;;3.70;;
4563;SDS011;2294;51.818;8.484;2022-12-18T07:18:18;6.28;;;3.67;;
4563;SDS011;2294;51.818;8.484;2022-12-18T07:20:45;5.68;;;4.30;;
4563;SDS011;2294;51.818;8.484;2022-12-18T07:23:12;13.38;;;4.60;;
4563;SDS011;2294;51.818;8.484;2022-12-18T07:25:40;6.97;;;5.40;;
4563;SDS011;2294;51.818;8.484;2022-12-18T07:28:07;8.48;;;3.50;;
4563;SDS011;2294;51.818;8.484;2022-12-18T07:30:36;7.22;;;3.75;;
4563;SDS011;2294;51.818;8.484;2022-12-18T07:33:03;8.40;;;4.47;;
4563;SDS011;2294;51.818;8.484;2022-12-18T07:35:30;11.67;;;6.30;;
4563;SDS011;2294;51.818;8.484;2022-12-18T07:37:58;8.93;;;5.70;;
4563;SDS011;2294;51.818;8.484;2022-12-18T07:40:25;8.63;;;4.90;;
4563;SDS011;2294;51.818;8.484;2022-12-18T07:42:53;10.07;;;5.88;;
4563;SDS011;2294;51.818;8.484;2022-12-18T07:45:20;10.95;;;4.93;;
4563;SDS011;2294;51.818;8.484;2022-12-18T07:47:47;7.80;;;3.67;;
4563;SDS011;2294;51.818;8.484;2022-12-18T07:50:14;10.82;;;4.63;;
4563;SDS011;2294;51.818;8.484;2022-12-18T07:52:41;5.45;;;4.05;;
4563;SDS011;2294;51.818;8.484;2022-12-18T07:55:08;22.30;;;7.77;;
4563;SDS011;2294;51.818;8.484;2022-12-18T07:57:35;12.17;;;6.87;;
4563;SDS011;2294;51.818;8.484;2022-12-18T08:00:04;14.13;;;7.50;;
4563;SDS011;2294;51.818;8.484;2022-12-18T08:02:32;8.82;;;6.13;;
4563;SDS011;2294;51.818;8.484;2022-12-18T08:04:58;15.95;;;6.25;;
4563;SDS011;2294;51.818;8.484;2022-12-18T08:07:25;7.40;;;4.43;;
4563;SDS011;2294;51.818;8.484;2022-12-18T08:09:52;8.80;;;4.93;;
4563;SDS011;2294;51.818;8.484;2022-12-18T08:12:19;8.87;;;5.30;;
4563;SDS011;2294;51.818;8.484;2022-12-18T08:14:46;16.03;;;5.07;;
4563;SDS011;2294;51.818;8.484;2022-12-18T08:17:14;8.23;;;4.80;;
4563;SDS011;2294;51.818;8.484;2022-12-18T08:19:41;6.53;;;4.15;;
4563;SDS011;2294;51.818;8.484;2022-12-18T08:22:08;11.40;;;6.47;;
4563;SDS011;2294;51.818;8.484;2022-12-18T08:24:35;10.85;;;6.60;;
4563;SDS011;2294;51.818;8.484;2022-12-18T08:27:01;6.95;;;3.95;;
4563;SDS011;2294;51.818;8.484;2022-12-18T08:29:28;9.80;;;4.13;;
4563;SDS011;2294;51.818;8.484;2022-12-18T08:31:56;9.63;;;5.03;;
4563;SDS011;2294;51.818;8.484;2022-12-18T08:34:25;6.88;;;4.18;;
4563;SDS011;2294;51.818;8.484;2022-12-18T08:36:52;10.83;;;4.80;;
4563;SDS011;2294;51.818;8.484;2022-12-18T08:39:19;16.17;;;6.70;;
4563;SDS011;2294;51.818;8.484;2022-12-18T08:41:45;10.50;;;5.50;;
4563;SDS011;2294;51.818;8.484;2022-12-18T08:44:33;15.90;;;6.60;;
4563;SDS011;2294;51.818;8.484;2022-12-18T08:47:05;11.27;;;5.47;;
4563;SDS011;2294;51.818;8.484;2022-12-18T08:49:34;12.63;;;4.60;;
4563;SDS011;2294;51.818;8.484;2022-12-18T08:52:02;13.33;;;7.17;;
4563;SDS011;2294;51.818;8.484;2022-12-18T08:54:29;14.03;;;6.27;;
4563;SDS011;2294;51.818;8.484;2022-12-18T08:56:56;8.13;;;5.90;;
4563;SDS011;2294;51.818;8.484;2022-12-18T08:59:23;11.33;;;5.53;;
4563;SDS011;2294;51.818;8.484;2022-12-18T09:01:49;13.63;;;6.87;;
4563;SDS011;2294;51.818;8.484;2022-12-18T09:04:16;12.43;;;6.70;;
4563;SDS011;2294;51.818;8.484;2022-12-18T09:06:45;15.13;;;7.40;;
4563;SDS011;2294;51.818;8.484;2022-12-18T09:09:12;12.30;;;6.03;;
4563;SDS011;2294;51.818;8.484;2022-12-18T09:11:39;14.83;;;7.73;;
4563;SDS011;2294;51.818;8.484;2022-12-18T09:14:06;15.77;;;6.30;;
4563;SDS011;2294;51.818;8.484;2022-12-18T09:16:33;12.03;;;6.30;;
4563;SDS011;2294;51.818;8.484;2022-12-18T09:19:01;14.47;;;7.30;;
4563;SDS011;2294;51.818;8.484;2022-12-18T09:21:30;16.40;;;7.40;;
4563;SDS011;2294;51.818;8.484;2022-12-18T09:23:59;12.93;;;8.10;;
4563;SDS011;2294;51.818;8.484;2022-12-18T09:26:26;14.27;;;7.50;;
4563;SDS011;2294;51.818;8.484;2022-12-18T09:28:53;10.67;;;7.10;;
4563;SDS011;2294;51.818;8.484;2022-12-18T09:31:21;9.23;;;5.40;;
4563;SDS011;2294;51.818;8.484;2022-12-18T09:33:49;13.40;;;5.93;;
4563;SDS011;2294;51.818;8.484;2022-12-18T09:36:17;15.13;;;8.40;;
4563;SDS011;2294;51.818;8.484;2022-12-18T09:38:44;10.77;;;5.53;;
4563;SDS011;2294;51.818;8.484;2022-12-18T09:41:19;10.30;;;6.07;;
4563;SDS011;2294;51.818;8.484;2022-12-18T09:44:05;9.43;;;5.80;;
4563;SDS011;2294;51.818;8.484;2022-12-18T09:46:40;12.47;;;6.80;;
4563;SDS011;2294;51.818;8.484;2022-12-18T09:49:12;12.70;;;6.77;;
4563;SDS011;2294;51.818;8.484;2022-12-18T09:51:43;12.77;;;6.93;;
4563;SDS011;2294;51.818;8.484;2022-12-18T09:54:14;9.87;;;5.57;;
4563;SDS011;2294;51.818;8.484;2022-12-18T09:56:46;14.80;;;5.70;;
4563;SDS011;2294;51.818;8.484;2022-12-18T09:59:15;10.33;;;5.67;;
4563;SDS011;2294;51.818;8.484;2022-12-18T10:01:47;11.93;;;6.43;;
4563;SDS011;2294;51.818;8.484;2022-12-18T10:04:14;11.70;;;5.60;;
4563;SDS011;2294;51.818;8.484;2022-12-18T10:06:42;15.63;;;6.50;;
4563;SDS011;2294;51.818;8.484;2022-12-18T10:09:18;11.47;;;6.30;;
4563;SDS011;2294;51.818;8.484;2022-12-18T10:11:55;13.43;;;6.03;;
4563;SDS011;2294;51.818;8.484;2022-12-18T10:14:30;9.10;;;5.17;;
4563;SDS011;2294;51.818;8.484;2022-12-18T10:17:09;16.93;;;5.77;;
4563;SDS011;2294;51.818;8.484;2022-12-18T10:19:42;14.10;;;5.87;;
4563;SDS011;2294;51.818;8.484;2022-12-18T10:22:18;7.23;;;5.07;;
4563;SDS011;2294;51.818;8.484;2022-12-18T10:24:52;10.83;;;5.60;;
4563;SDS011;2294;51.818;8.484;2022-12-18T10:27:27;8.00;;;5.20;;
4563;SDS011;2294;51.818;8.484;2022-12-18T10:29:55;12.77;;;6.00;;
4563;SDS011;2294;51.818;8.484;2022-12-18T10:32:23;12.43;;;5.37;;
4563;SDS011;2294;51.818;8.484;2022-12-18T10:34:52;13.60;;;6.47;;
4563;SDS011;2294;51.818;8.484;2022-12-18T10:37:21;14.10;;;5.70;;
4563;SDS011;2294;51.818;8.484;2022-12-18T10:40:06;11.27;;;6.80;;
4563;SDS011;2294;51.818;8.484;2022-12-18T10:42:36;8.80;;;5.27;;
4563;SDS011;2294;51.818;8.484;2022-12-18T10:45:09;10.90;;;6.43;;
4563;SDS011;2294;51.818;8.484;2022-12-18T10:47:40;10.10;;;5.40;;
4563;SDS011;2294;51.818;8.484;2022-12-18T10:50:10;8.10;;;5.20;;
4563;SDS011;2294;51.818;8.484;2022-12-18T10:52:55;10.10;;;5.37;;
4563;SDS011;2294;51.818;8.484;2022-12-18T10:55:30;15.63;;;6.47;;
4563;SDS011;2294;51.818;8.484;2022-12-18T11:01:01;11.63;;;5.90;;
4563;SDS011;2294;51.818;8.484;2022-12-18T11:03:34;10.27;;;5.67;;
4563;SDS011;2294;51.818;8.484;2022-12-18T11:06:03;12.63;;;6.50;;
4563;SDS011;2294;51.818;8.484;2022-12-18T11:08:33;9.70;;;4.70;;
4563;SDS011;2294;51.818;8.484;2022-12-18T11:10:59;12.97;;;6.10;;
4563;SDS011;2294;51.818;8.484;2022-12-18T11:13:29;8.40;;;4.70;;
4563;SDS011;2294;51.818;8.484;2022-12-18T11:15:56;8.37;;;4.30;;
4563;SDS011;2294;51.818;8.484;2022-12-18T11:18:25;7.90;;;5.57;;
4563;SDS011;2294;51.818;8.484;2022-12-18T11:20:55;13.10;;;6.47;;
4563;SDS011;2294;51.818;8.484;2022-12-18T11:23:23;13.50;;;5.83;;
4563;SDS011;2294;51.818;8.484;2022-12-18T11:25:52;9.80;;;4.53;;
4563;SDS011;2294;51.818;8.484;2022-12-18T11:28:25;9.43;;;5.73;;
4563;SDS011;2294;51.818;8.484;2022-12-18T11:31:09;10.23;;;5.97;;
4563;SDS011;2294;51.818;8.484;2022-12-18T11:33:44;11.07;;;6.27;;
4563;SDS011;2294;51.818;8.484;2022-12-18T11:36:13;19.30;;;8.90;;
4563;SDS011;2294;51.818;8.484;2022-12-18T11:38:42;38.33;;;17.70;;
4563;SDS011;2294;51.818;8.484;2022-12-18T11:41:13;13.10;;;8.17;;
4563;SDS011;2294;51.818;8.484;2022-12-18T11:43:49;10.60;;;6.63;;
4563;SDS011;2294;51.818;8.484;2022-12-18T11:46:23;13.73;;;7.47;;
4563;SDS011;2294;51.818;8.484;2022-12-18T11:48:56;11.00;;;5.90;;
4563;SDS011;2294;51.818;8.484;2022-12-18T11:51:27;13.57;;;7.23;;
4563;SDS011;2294;51.818;8.484;2022-12-18T11:53:58;9.50;;;5.87;;
4563;SDS011;2294;51.818;8.484;2022-12-18T11:56:28;18.40;;;7.50;;
4563;SDS011;2294;51.818;8.484;2022-12-18T11:59:02;14.60;;;6.37;;
4563;SDS011;2294;51.818;8.484;2022-12-18T12:01:39;8.90;;;5.50;;
4563;SDS011;2294;51.818;8.484;2022-12-18T12:04:21;11.20;;;5.20;;
4563;SDS011;2294;51.818;8.484;2022-12-18T12:07:21;13.10;;;6.53;;
4563;SDS011;2294;51.818;8.484;2022-12-18T12:10:00;12.00;;;6.70;;
4563;SDS011;2294;51.818;8.484;2022-12-18T12:12:36;9.40;;;5.13;;
4563;SDS011;2294;51.818;8.484;2022-12-18T12:15:19;10.13;;;6.40;;
4563;SDS011;2294;51.818;8.484;2022-12-18T12:17:55;13.90;;;5.00;;
4563;SDS011;2294;51.818;8.484;2022-12-18T12:20:32;8.50;;;4.87;;
4563;SDS011;2294;51.818;8.484;2022-12-18T12:23:11;12.17;;;6.70;;
4563;SDS011;2294;51.818;8.484;2022-12-18T12:25:44;9.67;;;5.37;;
4563;SDS011;2294;51.818;8.484;2022-12-18T12:28:22;9.47;;;5.10;;
4563;SDS011;2294;51.818;8.484;2022-12-18T12:31:03;14.70;;;5.50;;
4563;SDS011;2294;51.818;8.484;2022-12-18T12:33:40;5.70;;;4.13;;
4563;SDS011;2294;51.818;8.484;2022-12-18T12:36:20;13.37;;;5.30;;
4563;SDS011;2294;51.818;8.484;2022-12-18T12:38:54;7.70;;;5.40;;
4563;SDS011;2294;51.818;8.484;2022-12-18T12:41:24;7.90;;;4.97;;
4563;SDS011;2294;51.818;8.484;2022-12-18T12:44:13;9.87;;;5.23;;
4563;SDS011;2294;51.818;8.484;2022-12-18T12:46:44;9.30;;;5.27;;
4563;SDS011;2294;51.818;8.484;2022-12-18T12:49:13;9.17;;;4.93;;
4563;SDS011;2294;51.818;8.484;2022-12-18T12:51:43;7.17;;;5.03;;
4563;SDS011;2294;51.818;8.484;2022-12-18T12:54:14;7.47;;;4.17;;
4563;SDS011;2294;51.818;8.484;2022-12-18T12:56:44;14.10;;;5.20;;
4563;SDS011;2294;51.818;8.484;2022-12-18T12:59:19;8.57;;;5.07;;
4563;SDS011;2294;51.818;8.484;2022-12-18T13:01:54;7.70;;;4.20;;
4563;SDS011;2294;51.818;8.484;2022-12-18T13:04:30;5.97;;;3.87;;
4563;SDS011;2294;51.818;8.484;2022-12-18T13:07:03;6.87;;;4.27;;
4563;SDS011;2294;51.818;8.484;2022-12-18T13:09:37;6.20;;;4.40;;
4563;SDS011;2294;51.818;8.484;2022-12-18T13:12:51;5.67;;;3.60;;
4563;SDS011;2294;51.818;8.484;2022-12-18T13:15:25;5.90;;;3.40;;
4563;SDS011;2294;51.818;8.484;2022-12-18T13:20:49;7.17;;;4.17;;
4563;SDS011;2294;51.818;8.484;2022-12-18T13:28:59;6.87;;;4.40;;
4563;SDS011;2294;51.818;8.484;2022-12-18T13:34:33;7.97;;;4.33;;
4563;SDS011;2294;51.818;8.484;2022-12-18T13:40:14;4.93;;;3.57;;
4563;SDS011;2294;51.818;8.484;2022-12-18T13:43:32;7.00;;;3.93;;
4563;SDS011;2294;51.818;8.484;2022-12-18T13:46:03;9.43;;;4.30;;
4563;SDS011;2294;51.818;8.484;2022-12-18T13:48:33;5.77;;;3.63;;
4563;SDS011;2294;51.818;8.484;2022-12-18T13:51:05;6.40;;;2.97;;
4563;SDS011;2294;51.818;8.484;2022-12-18T13:53:35;9.27;;;4.30;;
4563;SDS011;2294;51.818;8.484;2022-12-18T13:56:05;7.20;;;4.33;;
4563;SDS011;2294;51.818;8.484;2022-12-18T13:58:32;6.47;;;3.47;;
4563;SDS011;2294;51.818;8.484;2022-12-18T14:00:59;5.30;;;3.20;;
4563;SDS011;2294;51.818;8.484;2022-12-18T14:03:28;11.17;;;3.90;;
4563;SDS011;2294;51.818;8.484;2022-12-18T14:05:56;5.20;;;3.50;;
4563;SDS011;2294;51.818;8.484;2022-12-18T14:08:29;5.90;;;3.47;;
4563;SDS011;2294;51.818;8.484;2022-12-18T14:11:01;6.77;;;4.20;;
4563;SDS011;2294;51.818;8.484;2022-12-18T14:13:30;7.33;;;3.97;;
4563;SDS011;2294;51.818;8.484;2022-12-18T14:16:00;6.80;;;3.47;;
4563;SDS011;2294;51.818;8.484;2022-12-18T14:18:31;16.43;;;4.47;;
4563;SDS011;2294;51.818;8.484;2022-12-18T14:21:04;9.10;;;5.40;;
4563;SDS011;2294;51.818;8.484;2022-12-18T14:23:34;3.90;;;3.07;;
4563;SDS011;2294;51.818;8.484;2022-12-18T14:26:17;6.80;;;3.83;;
4563;SDS011;2294;51.818;8.484;2022-12-18T14:28:46;5.50;;;3.87;;
4563;SDS011;2294;51.818;8.484;2022-12-18T14:31:16;7.17;;;4.63;;
4563;SDS011;2294;51.818;8.484;2022-12-18T14:33:44;6.13;;;3.60;;
4563;SDS011;2294;51.818;8.484;2022-12-18T14:36:13;4.50;;;3.20;;
4563;SDS011;2294;51.818;8.484;2022-12-18T14:38:47;7.73;;;3.93;;
4563;SDS011;2294;51.818;8.484;2022-12-18T14:41:15;6.13;;;3.37;;
4563;SDS011;2294;51.818;8.484;2022-12-18T14:43:44;6.80;;;3.40;;
4563;SDS011;2294;51.818;8.484;2022-12-18T14:46:28;6.30;;;4.03;;
4563;SDS011;2294;51.818;8.484;2022-12-18T14:49:00;7.00;;;4.97;;
4563;SDS011;2294;51.818;8.484;2022-12-18T14:51:29;7.60;;;3.93;;
4563;SDS011;2294;51.818;8.484;2022-12-18T14:53:59;4.70;;;3.33;;
4563;SDS011;2294;51.818;8.484;2022-12-18T14:56:28;10.53;;;4.90;;
4563;SDS011;2294;51.818;8.484;2022-12-18T14:58:57;5.60;;;3.83;;
4563;SDS011;2294;51.818;8.484;2022-12-18T15:01:26;5.57;;;3.97;;
4563;SDS011;2294;51.818;8.484;2022-12-18T15:03:56;7.57;;;4.60;;
4563;SDS011;2294;51.818;8.484;2022-12-18T15:06:28;6.67;;;5.00;;
4563;SDS011;2294;51.818;8.484;2022-12-18T15:08:58;8.40;;;4.47;;
4563;SDS011;2294;51.818;8.484;2022-12-18T15:11:27;6.93;;;4.80;;
4563;SDS011;2294;51.818;8.484;2022-12-18T15:13:58;10.70;;;4.20;;
4563;SDS011;2294;51.818;8.484;2022-12-18T15:16:25;11.70;;;5.20;;
4563;SDS011;2294;51.818;8.484;2022-12-18T15:18:52;10.37;;;4.53;;
4563;SDS011;2294;51.818;8.484;2022-12-18T15:21:20;7.80;;;5.20;;
4563;SDS011;2294;51.818;8.484;2022-12-18T15:23:47;9.80;;;6.13;;
4563;SDS011;2294;51.818;8.484;2022-12-18T15:26:18;8.47;;;4.30;;
4563;SDS011;2294;51.818;8.484;2022-12-18T15:28:47;7.53;;;4.60;;
4563;SDS011;2294;51.818;8.484;2022-12-18T15:31:23;9.17;;;4.87;;
4563;SDS011;2294;51.818;8.484;2022-12-18T15:34:16;9.80;;;5.90;;
4563;SDS011;2294;51.818;8.484;2022-12-18T15:36:46;8.17;;;4.80;;
4563;SDS011;2294;51.818;8.484;2022-12-18T15:39:13;10.27;;;5.80;;
4563;SDS011;2294;51.818;8.484;2022-12-18T15:41:42;9.83;;;5.47;;
4563;SDS011;2294;51.818;8.484;2022-12-18T15:44:29;9.20;;;5.50;;